FZY weather

Oswego County Airport
Fulton, New York, United States

Public forecast

Using degrees Fahrenheit for public forecast. Weather courtesy of forecast.io.

Current aviation weather report (METAR) for Oswego County Airport

Retrieved 2019/11/13 17:54 UTC (57 minutes ago):

KFZY 131754Z AUTO 30007KT 10SM CLR M06/M15 A3038 RMK AO2 SLP298 60000 T10561150 11056 21106 50000

Closest aviation forecast (TAF) to Oswego County Airport

Closest forecast is Syracuse Hancock International Airport, 18.9 nm (35.1 km) SE. Retrieved 2019/11/13 18:36 UTC (15 minutes ago):

TAF KSYR 131733Z 1318/1418 28005KT P6SM SCT040 FM132200 VRB04KT P6SM BKN150 FM140300 12007KT P6SM BKN080 FM141400 18007G15KT P6SM BKN080